Flight Track Log - Related Links

Times and Time Zones

All times are in EDT time to prevent confusion due to time zone crossing. See the AMX202 flight status page for this flight to view local times or setup timezone preferences in your user account.

Time Position Orientation Groundspeed Altitude Reporting Facility
EDT Latitude Longitude Course Direction KTS MPH feet Rate Location/Type
Fri 06:01:00 PM 20.3433 -99.6858 328° Northwest  Level Estimated
Fri 06:02:00 PM 20.4257 -99.7420 327° Northwest  Level Estimated
Fri 06:03:00 PM 20.5080 -99.7982 327° Northwest  Level Estimated
Fri 06:04:00 PM 20.5903 -99.8545 327° Northwest  Level Estimated
Fri 06:05:00 PM 20.6726 -99.9108 327° Northwest  Level Estimated
Fri 06:06:00 PM 20.7549 -99.9672 327° Northwest  Level Estimated
Fri 06:07:00 PM 20.8372 -100.0236 327° Northwest  Level Estimated
Fri 06:08:00 PM 20.9194 -100.0801 327° Northwest  Level Estimated
Fri 06:09:00 PM 21.0016 -100.1367 327° Northwest  Level Estimated
Fri 06:10:00 PM 21.0839 -100.1934 327° Northwest  Level Estimated
Fri 06:11:00 PM 21.1660 -100.2501 327° Northwest  Level Estimated
Fri 06:12:00 PM 21.2482 -100.3068 327° Northwest  Level Estimated
Fri 06:13:00 PM 21.3304 -100.3636 327° Northwest  Level Estimated
Fri 06:14:00 PM 21.4125 -100.4205 327° Northwest  Level Estimated
Fri 06:15:00 PM 21.4946 -100.4775 327° Northwest  Level Estimated
Fri 06:16:00 PM 21.5767 -100.5345 327° Northwest  Level Estimated
Fri 06:17:00 PM 21.6588 -100.5916 327° Northwest  Level Estimated
Fri 06:18:00 PM 21.7408 -100.6487 327° Northwest  Level Estimated
Fri 06:19:00 PM 21.8228 -100.7059 327° Northwest  Level Estimated
Fri 06:20:00 PM 21.9049 -100.7632 327° Northwest  Level Estimated
Fri 06:21:00 PM 21.9868 -100.8206 327° Northwest  Level Estimated
Fri 06:22:00 PM 22.0688 -100.8780 327° Northwest  Level Estimated
Fri 06:23:00 PM 22.1508 -100.9355 327° Northwest  Level Estimated
Fri 06:24:00 PM 22.2327 -100.9930 327° Northwest  Level Estimated
Fri 06:25:00 PM 22.3146 -101.0506 327° Northwest  Level Estimated
Fri 06:26:00 PM 22.3965 -101.1083 327° Northwest  Level Estimated
Fri 06:27:00 PM 22.4784 -101.1660 327° Northwest  Level Estimated
Fri 06:28:00 PM 22.5602 -101.2239 327° Northwest  Level Estimated
Fri 06:29:00 PM 22.6420 -101.2817 327° Northwest  Level Estimated
Fri 06:30:00 PM 22.7239 -101.3397 327° Northwest  Level Estimated
Fri 06:31:00 PM 22.8056 -101.3977 327° Northwest  Level Estimated
Fri 06:32:00 PM 22.8874 -101.4558 327° Northwest  Level Estimated
Fri 06:33:00 PM 22.9692 -101.5140 327° Northwest  Level Estimated
Fri 06:34:00 PM 23.0509 -101.5722 327° Northwest  Level Estimated
Fri 06:35:00 PM 23.1326 -101.6305 327° Northwest  Level Estimated
Fri 06:36:00 PM 23.2143 -101.6889 327° Northwest  Level Estimated
Fri 06:37:00 PM 23.2959 -101.7473 327° Northwest  Level Estimated
Fri 06:38:00 PM 23.3776 -101.8058 327° Northwest  Level Estimated
Fri 06:39:00 PM 23.4592 -101.8644 327° Northwest  Level Estimated
Fri 06:40:00 PM 23.5408 -101.9231 327° Northwest  Level Estimated
Fri 06:41:00 PM 23.6224 -101.9818 327° Northwest  Level Estimated
Fri 06:42:00 PM 23.7039 -102.0406 327° Northwest  Level Estimated
Fri 06:43:00 PM 23.7854 -102.0995 327° Northwest  Level Estimated
Fri 06:44:00 PM 23.8669 -102.1585 327° Northwest  Level Estimated
Fri 06:45:00 PM 23.9484 -102.2175 326° Northwest  Level Estimated
Fri 06:46:00 PM 24.0299 -102.2766 326° Northwest  Level Estimated
Fri 06:47:00 PM 24.1113 -102.3358 326° Northwest  Level Estimated
Fri 06:48:00 PM 24.1927 -102.3951 326° Northwest  Level Estimated
Fri 06:49:00 PM 24.2741 -102.4544 326° Northwest  Level Estimated
Fri 06:50:00 PM 24.3555 -102.5138 326° Northwest  Level Estimated
Fri 06:51:00 PM 24.4368 -102.5733 326° Northwest  Level Estimated
Fri 06:52:00 PM 24.5182 -102.6328 326° Northwest  Level Estimated
Fri 06:53:00 PM 24.5995 -102.6925 326° Northwest  Level Estimated
Fri 06:54:00 PM 24.6807 -102.7522 326° Northwest  Level Estimated
Fri 06:55:00 PM 24.7620 -102.8120 326° Northwest  Level Estimated
Fri 06:56:00 PM 24.8432 -102.8718 326° Northwest  Level Estimated
Fri 06:57:00 PM 24.9244 -102.9318 326° Northwest  Level Estimated
Fri 06:58:00 PM 25.0056 -102.9918 326° Northwest  Level Estimated
Fri 06:59:00 PM 25.0868 -103.0519 326° Northwest  Level Estimated
Fri 07:00:00 PM 25.1679 -103.1121 326° Northwest  Level Estimated
Fri 07:01:00 PM 25.2490 -103.1724 326° Northwest  Level Estimated
Fri 07:02:00 PM 25.3301 -103.2327 326° Northwest  Level Estimated
Fri 07:03:00 PM 25.4111 -103.2932 326° Northwest  Level Estimated
Fri 07:04:00 PM 25.4922 -103.3537 326° Northwest  Level Estimated
Fri 07:05:00 PM 25.5683 -103.4106 326° Northwest  Level Estimated
Fri 07:06:00 PM 25.5683 -103.4106 234° Southwest  Level Estimated
Fri 07:07:00 PM 25.5683 -103.4106 234° Southwest  Level Estimated

Login

Don't have an account? Register now (free) for customized features, flight alerts, and more!